CYQFCYDQ

Guest
Details From CYQF - RED DEER REGIONAL
To CYDQ - DAWSON CREEK
Flight Number -
Tags generated
Created
Modified
Stats Distance 315 nm / 584 km
Max Altitude 18,900 ft / 5,761 m
Waypoints 4
Social Downloads 0
Likes 0
Share VATSIM

Download

Looking for another format? Having issues loading an existing format? Contact us
Advertisement - Login to hide

Notes

Basic altitude profile: - Ascent Rate: 2500ft/min - Ascent Speed: 250kts - Cruise Altitude: 35000ft - Cruise Speed: 420kts - Descent Rate: 1500ft/min - Descent Speed: 250kts

Route

CYQF YRM J485 YQU CYDQ

ID Type Via Altitude Latitude Longitude Leg Dist Tot Dist Heading (true) Name
O CYQF APT - 0 ft / 0 m 52.18257˚ -113.89369˚ - 0 nm - RED DEER REGIONAL
YRM VOR - 18,900 ft / 5,761 m 52.50219˚ -115.32356˚ 55 nm 55 nm 291° / 290° ROCKY MOUNTAIN VOR-DME
YQU VOR J485 (AWY-HI) 18,000 ft / 5,486 m 55.17422˚ -119.03019˚ 207 nm 263 nm 322° / 319° GRANDE PRAIRIE VOR-DME
O CYDQ APT - 0 ft / 0 m 55.74167˚ -120.18152˚ 51 nm 315 nm 311° / 311° DAWSON CREEK

Altitude Profile

Advertisement - Login to hide

Weather


0- 5 10 15 20 25 30 35+ Temperature / ° C

Clouds and Precipitation
Forecast for 2017-12-11 12:00 UTC. Updated 44 minutes ago

Ground ~20,000 ft ~40,000 ft Winds

CYQF

Details ICAO CYQF (YQF)
Name RED DEER REGIONAL
Region Canada
Timezone America/Edmonton (UTC-7.0)
Stats Elevation 2,968 ft / 905 m (AMSL)
Location 52.182568° -113.893686°
Runways 2
Magnetic Variation 14.256° E

METAR

CYQF 110800Z 25010KT 15SM SKC M01/M08 A3036 RMK SLP315

Decode

TAF

TAF CYQF 110538Z 1106/1118 22005KT P6SM SCT250 RMK NXT FCST BY 111200Z

Decode

Departure Runways

ID Width Length Bearing (true) Bearing (mag) Surface Threshold Offset Overrun Length
11 100 ft / 30 m 3,480 ft / 1,061 m 129.84° 115.58° Asphalt 0 ft / 0 m 0 ft / 0 m
16 98 ft / 30 m 5,575 ft / 1,699 m 180.00° 165.74° Asphalt 0 ft / 0 m 0 ft / 0 m
29 100 ft / 30 m 3,480 ft / 1,061 m 309.85° 295.59° Asphalt 0 ft / 0 m 0 ft / 0 m
34 98 ft / 30 m 5,575 ft / 1,699 m 0.00° 345.74° Asphalt 0 ft / 0 m 0 ft / 0 m

CYDQ

Details ICAO CYDQ (YDQ)
Name DAWSON CREEK
Region Canada
Timezone America/Dawson_Creek (UTC-7.0)
Stats Elevation 2,148 ft / 655 m (AMSL)
Location 55.741667° -120.181525°
Runways 1
Magnetic Variation 17.295° E

METAR

CYDQ 110800Z AUTO VRB02KT 9SM OVC120 01/M01 A3030 RMK SLP290

Decode

TAF

TAF CYDQ 110039Z 1101/1105 28012KT P6SM SCT150 BECMG 1103/1105 25006KT BKN120 RMK FCST BASED ON AUTO OBS. NXT FCST WILL BE ISSUED AT 111245Z

Decode

Destination Runways

ID Width Length Bearing (true) Bearing (mag) Surface Threshold Offset Overrun Length
06 150 ft / 46 m 4,982 ft / 1,519 m 85.32° 68.03° Asphalt 0 ft / 0 m 0 ft / 0 m
24 150 ft / 46 m 4,982 ft / 1,519 m 265.34° 248.05° Asphalt 0 ft / 0 m 0 ft / 0 m